< < Back
Terminal Aerodrome Forecast


Current Version              Previous Versions:   1  2  3  4  5  6  7  8  9  

Terminal Aerodrome Forecast

461
FTUS44 KMOB 272300
TAFPNS
TAF
KPNS 272320Z 2800/2824 34008KT P6SM SKC
     FM281200 02008KT P6SM SKC=

Latest METAR

944
SAUS70 KWBC 281200 RRI
MTRPNS
METAR KPNS 281153Z 01005KT 10SM CLR 06/01 A3023 RMK AO2 SLP238 T00610006
10100 20061 53020


USA.gov is the U.S. government's official web portal to all federal, state and local government web resources and services.